Flight Track Log - Related Links

Times and Time Zones

All times are in EDT time to prevent confusion due to time zone crossing. See the SWA1423 flight status page for this flight to view local times or setup timezone preferences in your user account.

Time Position Orientation Groundspeed Altitude Reporting Facility
EDT Latitude Longitude Course Direction KTS MPH feet Rate Location/Type
Sat 05:48:01 PM 40.7500 -73.8833 72° East 161 185 1,400  Level New York TRACON
Sat 05:48:55 PM 40.7667 -73.8167 72° East 245 282 3,500 3,000 Climbing New York TRACON
Sat 05:50:01 PM 40.8167 -73.8000 14° North 272 313 7,400 3,810 Climbing New York TRACON
Sat 05:51:01 PM 40.8333 -73.8833 285° West 239 275 11,500 2,350 Climbing New York TRACON
Sat 05:52:01 PM 40.8500 -74.0000 281° West 302 348 12,100 1,700 Climbing New York TRACON
Sat 05:53:01 PM 40.8667 -74.1167 281° West 326 375 14,900 1,750 Climbing New York TRACON
Sat 05:54:01 PM 40.8667 -74.2333 270° West 335 386 15,600 850 Climbing New York TRACON
Sat 05:55:01 PM 40.8667 -74.3500 270° West 333 383 16,600 587 Climbing New York TRACON
Sat 05:56:24 PM 40.8819 -74.4981 278° West 343 395 17,000 168 Climbing New York Center
Sat 05:57:24 PM 40.8881 -74.6303 274° West 343 395 17,000  Level New York Center
Sat 05:58:22 PM 40.8950 -74.7378 275° West 333 383 17,000 50 Level New York Center
Sat 05:59:23 PM 40.9031 -74.8700 275° West 333 383 17,100 1,240 Climbing New York Center
Sat 06:00:23 PM 40.9075 -74.9772 273° West 328 377 19,500 2,479 Climbing New York Center
Sat 06:01:24 PM 40.8950 -75.0944 262° West 328 377 22,100 2,430 Climbing New York Center
Sat 06:02:24 PM 40.8739 -75.2111 257° West 333 383 24,400 2,288 Climbing New York Center
Sat 06:03:22 PM 40.8483 -75.3386 255° West 345 397 26,600 1,966 Climbing New York Center
Sat 06:04:23 PM 40.8225 -75.4631 255° West 352 405 28,300 2,033 Climbing New York Center
Sat 06:05:23 PM 40.7961 -75.6008 256° West 357 411 30,700 2,300 Climbing New York Center
Sat 06:06:23 PM 40.7725 -75.7197 255° West 352 405 32,900 1,884 Climbing New York Center
Sat 06:07:24 PM 40.7444 -75.8383 253° West 347 399 34,500 1,190 Climbing New York Center
Sat 06:08:24 PM 40.7225 -75.9600 257° West 347 399 35,300 763 Climbing New York Center
Sat 06:09:22 PM 40.6939 -76.0892 254° West 355 409 36,000 1,008 Climbing New York Center
Sat 06:10:23 PM 40.6672 -76.2183 255° West 361 415 37,300 1,000 Climbing New York Center
Sat 06:11:22 PM 40.6794 -76.3564 277° West 366 421 38,000 353 Climbing New York Center
Sat 06:12:22 PM 40.7022 -76.4922 283° West 376 433 38,000  Level New York Center
Sat 06:13:23 PM 40.7225 -76.6308 281° West 376 433 38,000  Level New York Center
Sat 06:14:24 PM 40.7406 -76.7694 280° West 381 438 38,000  Level New York Center
Sat 06:15:24 PM 40.7628 -76.9083 282° West 386 444 38,000  Level New York Center
Sat 06:16:22 PM 40.7828 -77.0417 281° West 386 444 38,000  Level New York Center
Sat 06:17:23 PM 40.8025 -77.1781 281° West 380 437 38,000  Level New York Center
Sat 06:19:11 PM 40.8364 -77.4214 281° West 378 435 38,000  Level Cleveland Center
Sat 06:20:11 PM 40.8547 -77.5578 280° West 373 429 38,000  Level Cleveland Center
Sat 06:21:11 PM 40.8728 -77.6917 280° West 373 429 38,000  Level Cleveland Center
Sat 06:22:11 PM 40.8906 -77.8144 281° West 378 435 38,000  Level Cleveland Center
Sat 06:23:11 PM 40.9081 -77.9483 280° West 378 435 38,000  Level Cleveland Center
Sat 06:24:11 PM 40.9258 -78.0794 280° West 373 429 38,000  Level Cleveland Center
Sat 06:25:11 PM 40.9411 -78.2164 278° West 373 429 38,000  Level Cleveland Center
Sat 06:26:11 PM 40.9628 -78.3531 282° West 373 429 38,000  Level Cleveland Center
Sat 06:27:11 PM 40.9778 -78.4900 278° West 373 429 38,000  Level Cleveland Center
Sat 06:28:11 PM 40.9928 -78.6272 278° West 373 429 38,000  Level Cleveland Center
Sat 06:29:11 PM 41.0117 -78.7642 280° West 373 429 38,000  Level Cleveland Center
Sat 06:30:11 PM 41.0264 -78.9014 278° West 378 435 38,000  Level Cleveland Center
Sat 06:31:11 PM 41.0450 -79.0414 280° West 383 441 38,000  Level Cleveland Center
Sat 06:32:11 PM 41.0592 -79.1842 278° West 389 448 38,000  Level Cleveland Center
Sat 06:33:11 PM 41.0756 -79.3244 279° West 389 448 38,000  Level Cleveland Center
Sat 06:34:11 PM 41.0894 -79.4647 278° West 389 448 38,000  Level Cleveland Center
Sat 06:35:11 PM 41.1075 -79.6022 280° West 389 448 38,000  Level Cleveland Center
Sat 06:36:11 PM 41.1211 -79.7425 277° West 389 448 38,000  Level Cleveland Center
Sat 06:37:11 PM 41.1367 -79.8994 278° West 389 448 38,000  Level Cleveland Center
Sat 06:38:11 PM 41.1497 -80.0261 278° West 389 448 38,000  Level Cleveland Center
Sat 06:39:11 PM 41.1672 -80.1639 280° West 389 448 38,000  Level Cleveland Center
Sat 06:40:11 PM 41.1822 -80.3183 277° West 389 448 38,000  Level Cleveland Center
Sat 06:41:11 PM 41.2053 -80.4589 282° West 389 448 38,000  Level Cleveland Center
Sat 06:42:11 PM 41.2575 -80.5858 299° West 389 448 38,000  Level Cleveland Center
Sat 06:43:11 PM 41.3117 -80.7158 299° West 395 455 38,000  Level Cleveland Center
Sat 06:44:11 PM 41.3383 -80.8542 284° West 388 447 38,000  Level Cleveland Center
Sat 06:45:11 PM 41.3442 -80.9953 273° West 388 447 38,000  Level Cleveland Center
Sat 06:46:11 PM 41.3519 -81.1364 274° West 383 441 38,000  Level Cleveland Center
Sat 06:47:11 PM 41.3597 -81.2747 274° West 383 441 38,000  Level Cleveland Center
Sat 06:48:11 PM 41.3692 -81.4103 275° West 383 441 38,000  Level Cleveland Center
Sat 06:49:11 PM 41.3764 -81.5517 274° West 378 435 38,000  Level Cleveland Center
Sat 06:50:11 PM 41.3814 -81.6900 273° West 378 435 38,000  Level Cleveland Center
Sat 06:51:11 PM 41.3903 -81.8314 275° West 388 447 38,000  Level Cleveland Center
Sat 06:52:11 PM 41.3928 -81.9753 271° West 388 447 38,000  Level Cleveland Center
Sat 06:53:11 PM 41.3994 -82.1139 274° West 382 440 38,000  Level Cleveland Center
Sat 06:54:11 PM 41.4058 -82.2553 273° West 382 440 38,000  Level Cleveland Center
Sat 06:55:11 PM 41.4097 -82.3967 272° West 387 445 38,000  Level Cleveland Center
Sat 06:56:11 PM 41.4158 -82.5436 273° West 387 445 38,000  Level Cleveland Center
Sat 06:57:11 PM 41.4219 -82.6683 274° West 387 445 38,000  Level Cleveland Center
Sat 06:58:11 PM 41.4253 -82.8125 272° West 387 445 38,000  Level Cleveland Center
Sat 06:59:11 PM 41.4308 -82.9567 273° West 387 445 38,000  Level Cleveland Center
Sat 07:00:11 PM 41.4361 -83.1008 273° West 387 445 38,000  Level Cleveland Center
Sat 07:01:11 PM 41.4392 -83.2367 272° West 382 440 38,000  Level Cleveland Center
Sat 07:02:11 PM 41.4439 -83.3892 272° West 382 440 38,000  Level Cleveland Center
Sat 07:03:11 PM 41.4467 -83.5308 272° West 382 440 38,000  Level Cleveland Center
Sat 07:04:11 PM 41.4533 -83.6697 274° West 382 440 38,000  Level Cleveland Center
Sat 07:05:11 PM 41.4578 -83.8111 272° West 382 440 38,000  Level Cleveland Center
Sat 07:07:23 PM 41.4694 -84.0972 273° West 376 433 38,000 -62 Level Chicago Center
Sat 07:08:25 PM 41.4719 -84.2375 271° West 379 436 37,800 -1,415 Descending Chicago Center
Sat 07:09:26 PM 41.4747 -84.3753 272° West 374 430 35,100 -3,024 Descending Chicago Center
Sat 07:10:28 PM 41.4786 -84.5428 272° West 377 434 31,600 -2,488 Descending Chicago Center
Sat 07:11:29 PM 41.4825 -84.6806 272° West 375 432 30,000 -787 Descending Chicago Center
Sat 07:12:30 PM 41.4875 -84.8206 273° West 377 434 30,000  Level Chicago Center
Sat 07:13:31 PM 41.4925 -84.9603 273° West 378 435 30,000 -492 Level Chicago Center
Sat 07:14:32 PM 41.4972 -85.1019 273° West 381 438 29,000 -1,415 Descending Chicago Center
Sat 07:15:34 PM 41.5014 -85.2450 272° West 383 441 27,100 -1,902 Descending Chicago Center
Sat 07:16:35 PM 41.5058 -85.3861 272° West 380 437 25,100 -1,525 Descending Chicago Center
Sat 07:17:36 PM 41.5106 -85.5219 273° West 357 411 24,000 -639 Descending Chicago Center
Sat 07:18:37 PM 41.5139 -85.6561 272° West 357 411 23,800 -780 Descending Chicago Center
Sat 07:19:39 PM 41.5178 -85.7878 272° West 353 406 22,400 -1,805 Descending Chicago Center
Sat 07:20:40 PM 41.5214 -85.9100 272° West 329 379 20,100 -2,213 Descending Chicago Center
Sat 07:21:41 PM 41.5242 -86.0297 272° West 322 371 17,900 -2,164 Descending Chicago Center
Sat 07:22:42 PM 41.5247 -86.1431 270° West 308 354 15,700 -2,098 Descending Chicago Center
Sat 07:23:44 PM 41.5244 -86.2508 270° West 293 337 13,600 -2,195 Descending Chicago Center
Sat 07:24:45 PM 41.5222 -86.3789 269° West 289 333 11,200 -1,770 Descending Chicago Center
Sat 07:25:46 PM 41.5219 -86.4886 270° West 293 337 10,000 -590 Descending Chicago Center
Sat 07:26:47 PM 41.5214 -86.5947 270° West 286 329 10,000  Level Chicago Center
Sat 07:27:49 PM 41.5203 -86.7031 269° West 291 335 10,000 -49 Level Chicago Center
Sat 07:28:50 PM 41.5206 -86.8128 270° West 272 313 9,900 -541 Descending Chicago Center
Sat 07:29:51 PM 41.5186 -86.8981 268° West 236 272 8,900 -984 Descending Chicago Center
Sat 07:30:52 PM 41.5286 -86.9797 279° West 231 266 7,900 -976 Descending Chicago Center
Sat 07:31:54 PM 41.5472 -87.0600 287° West 225 259 6,900 -976 Descending Chicago Center
Sat 07:32:55 PM 41.5681 -87.1478 288° West 244 281 5,900 -1,067 Descending Chicago Center
Sat 07:33:24 PM 41.5833 -87.2000 291° West 248 285 5,300 -944 Descending Chicago TRACON
Sat 07:34:24 PM 41.6000 -87.2833 285° West 245 282 4,500 -619 Descending Chicago TRACON
Sat 07:35:30 PM 41.6167 -87.3833 283° West 246 283 4,000 -316 Descending Chicago TRACON
Sat 07:35:59 PM 41.6281 -87.4239 291° West 243 280 4,000  Level Chicago Center
Sat 07:37:00 PM 41.6472 -87.5081 287° West 241 277 4,000 -49 Level Chicago Center
Sat 07:38:01 PM 41.6650 -87.5858 287° West 234 269 3,900 -537 Descending Chicago Center
Sat 07:39:03 PM 41.7025 -87.6364 315° West 213 245 2,900 -1,077 Descending Chicago Center
Sat 07:39:19 PM 41.7167 -87.6500 324° Northwest 187 215 2,500 -1,026 Descending Chicago TRACON
Sat 07:40:19 PM 41.7500 -87.7000 312° West 152 175 1,600 -800 Descending Chicago TRACON
Sat 07:41:19 PM 41.7667 -87.7333 304° West 126 145 900 -700 Descending Chicago TRACON

Login

Don't have an account? Register now (free) for customized features, flight alerts, and more!